W Hartford, Connecticut
Current Conditions -  °F | °C
As of 3:53 AM on Thursday 27 Nov 2014 (Local Time) from KHFD Reporting Station
Overcast Overcast  
Wind Chill: 34°   Ceiling: 2300
Heat Index: 34°   Visibility: 10mi
Dew Point: 31°   Wind: 3mph
Humidity: 89%   Direction: NA
Pressure: 29.85"   Gusts: NA
Location:  41.7326°N, 72.7337°W
Report Text: KHFD 270853Z AUTO VRB03KT 10SM OVC023 01/M01 A2985 RMK AO2 SLP107 60001 T00111006 51018
Loading
Personal Weather Stations






























Interactive Weather Map New forecast layout! Learn more

10-Day Weather Forecast

Advertisements
Track Severe Weather on mobile